createdAt,value
2022-08-09T00:00:04.202Z,102136.00
2022-08-09T00:01:10.712Z,102141.38
2022-08-09T00:02:18.969Z,102133.47
2022-08-09T00:04:03.586Z,102136.16
2022-08-09T00:04:43.705Z,102144.25
2022-08-09T00:06:19.549Z,102135.44
2022-08-09T00:07:25.527Z,102139.13
2022-08-09T00:08:33.099Z,102136.59
2022-08-09T00:09:35.756Z,102140.28
2022-08-09T00:10:40.632Z,102138.63
2022-08-09T00:12:03.220Z,102138.63
2022-08-09T00:13:06.609Z,102131.66
2022-08-09T00:14:21.754Z,102123.75
2022-08-09T00:15:58.164Z,102123.88
2022-08-09T00:16:53.078Z,102134.50
2022-08-09T00:18:05.138Z,102130.13
2022-08-09T00:19:13.545Z,102128.41
2022-08-09T00:20:21.130Z,102124.03
2022-08-09T00:21:24.441Z,102125.03
2022-08-09T00:22:35.136Z,102131.41
2022-08-09T00:23:56.395Z,102126.00
2022-08-09T00:25:08.431Z,102119.94
2022-08-09T00:26:14.491Z,102125.34
2022-08-09T00:27:17.193Z,102124.47
2022-08-09T00:28:19.747Z,102129.00
2022-08-09T00:30:09.902Z,102128.31
2022-08-09T00:30:46.591Z,102132.72
2022-08-09T00:31:58.416Z,102125.63
2022-08-09T00:33:01.710Z,102131.03
2022-08-09T00:34:04.488Z,102132.16
2022-08-09T00:35:08.290Z,102132.16
2022-08-09T00:36:09.955Z,102126.78
2022-08-09T00:37:12.525Z,102127.78
2022-08-09T00:38:15.306Z,102126.91
2022-08-09T00:40:09.656Z,102133.28
2022-08-09T00:40:40.035Z,102128.91
2022-08-09T00:44:13.883Z,102131.91
2022-08-09T00:44:14.247Z,102133.47
2022-08-09T00:44:41.115Z,102133.59
2022-08-09T00:45:50.593Z,102133.59
2022-08-09T00:47:01.776Z,102138.97
2022-08-09T00:48:07.539Z,102142.69
2022-08-09T00:49:10.184Z,102135.44
2022-08-09T00:50:14.228Z,102127.34
2022-08-09T00:51:18.795Z,102136.44
2022-08-09T00:52:22.813Z,102132.03
2022-08-09T00:53:32.736Z,102133.88
2022-08-09T00:54:37.936Z,102133.88
2022-08-09T00:56:05.668Z,102137.59
2022-08-09T00:57:08.768Z,102125.13
2022-08-09T00:58:14.781Z,102135.03
2022-08-09T00:59:40.659Z,102135.91
2022-08-09T01:00:44.671Z,102133.31
2022-08-09T01:01:51.496Z,102136.16
2022-08-09T01:03:00.662Z,102137.84
2022-08-09T01:04:10.000Z,102136.16
2022-08-09T01:05:22.416Z,102128.22
2022-08-09T01:06:55.598Z,102135.44
2022-08-09T01:08:04.775Z,102139.16
2022-08-09T01:09:19.173Z,102130.34
2022-08-09T01:10:39.007Z,102136.75
2022-08-09T01:11:56.559Z,102136.75
2022-08-09T01:13:04.723Z,102135.03
2022-08-09T01:14:21.829Z,102129.78
2022-08-09T01:15:31.242Z,102136.31
2022-08-09T01:16:38.864Z,102129.97
2022-08-09T01:17:46.952Z,102139.03
2022-08-09T01:19:02.627Z,102139.03
2022-08-09T01:20:10.632Z,102127.41
2022-08-09T01:21:24.860Z,102129.25
2022-08-09T01:23:03.044Z,102128.41
2022-08-09T01:24:15.068Z,102130.25
2022-08-09T01:25:24.799Z,102138.47
2022-08-09T01:26:46.315Z,102131.41
2022-08-09T01:27:57.905Z,102142.16
2022-08-09T01:29:02.652Z,102134.22
2022-08-09T01:30:08.196Z,102127.13
2022-08-09T01:31:23.386Z,102130.69
2022-08-09T01:32:45.537Z,102140.59
2022-08-09T01:33:50.148Z,102135.38
2022-08-09T01:34:55.436Z,102135.50
2022-08-09T01:36:02.555Z,102131.97
2022-08-09T01:37:09.782Z,102134.66
2022-08-09T01:38:18.522Z,102136.53
2022-08-09T01:39:23.625Z,102137.50
2022-08-09T01:40:29.189Z,102138.50
2022-08-09T01:41:35.650Z,102142.16
2022-08-09T01:42:40.901Z,102135.81
2022-08-09T01:43:52.759Z,102137.81
2022-08-09T01:44:55.607Z,102145.88
2022-08-09T01:45:58.400Z,102139.78
2022-08-09T01:47:02.254Z,102147.84
2022-08-09T01:48:06.455Z,102149.72
2022-08-09T01:49:12.791Z,102143.47
2022-08-09T01:50:18.078Z,102142.75
2022-08-09T01:51:33.144Z,102141.09
2022-08-09T01:52:36.907Z,102146.59
2022-08-09T01:53:44.387Z,102148.44
2022-08-09T01:54:57.232Z,102139.66
2022-08-09T01:56:00.276Z,102139.66
2022-08-09T01:57:08.392Z,102136.25
2022-08-09T01:58:13.658Z,102136.25
2022-08-09T01:59:19.565Z,102135.56
2022-08-09T02:00:35.394Z,102133.72
2022-08-09T02:02:00.081Z,102141.94
2022-08-09T02:03:06.517Z,102139.41
2022-08-09T02:04:10.560Z,102140.53
2022-08-09T02:05:16.513Z,102141.41
2022-08-09T02:06:45.535Z,102135.28
2022-08-09T02:08:38.627Z,102143.53
2022-08-09T02:09:42.272Z,102137.41
2022-08-09T02:10:50.952Z,102137.41
2022-08-09T02:11:54.449Z,102140.28
2022-08-09T02:13:04.070Z,102141.94
2022-08-09T02:14:10.215Z,102148.47
2022-08-09T02:15:21.168Z,102143.09
2022-08-09T02:16:33.776Z,102144.06
2022-08-09T02:18:00.176Z,102139.72
2022-08-09T02:19:01.834Z,102142.41
2022-08-09T02:20:05.607Z,102140.84
2022-08-09T02:21:11.105Z,102149.75
2022-08-09T02:22:35.735Z,102140.97
2022-08-09T02:23:43.170Z,102143.66
2022-08-09T02:24:51.943Z,102141.97
2022-08-09T02:25:58.011Z,102136.75
2022-08-09T02:27:06.577Z,102141.28
2022-08-09T02:28:13.226Z,102141.28
2022-08-09T02:29:25.414Z,102137.72
2022-08-09T02:30:31.323Z,102136.88
2022-08-09T02:31:38.043Z,102135.19
2022-08-09T02:32:45.440Z,102136.19
2022-08-09T02:34:07.298Z,102132.63
2022-08-09T02:35:25.728Z,102132.75
2022-08-09T02:36:46.750Z,102132.06
2022-08-09T02:38:00.253Z,102132.06
2022-08-09T02:39:07.134Z,102146.50
2022-08-09T02:40:27.110Z,102128.69
2022-08-09T02:41:38.457Z,102128.69
2022-08-09T02:42:43.950Z,102121.59
2022-08-09T02:43:54.737Z,102129.66
2022-08-09T02:45:03.802Z,102128.97
2022-08-09T02:46:11.858Z,102132.66
2022-08-09T02:47:16.111Z,102132.66
2022-08-09T02:48:30.739Z,102125.56
2022-08-09T02:49:38.902Z,102126.41
2022-08-09T02:50:54.391Z,102123.88
2022-08-09T02:52:00.035Z,102129.25
2022-08-09T02:53:25.724Z,102131.97
2022-08-09T02:54:30.363Z,102132.94
2022-08-09T02:55:57.649Z,102132.94
2022-08-09T02:57:13.705Z,102136.59
2022-08-09T02:58:35.764Z,102138.59
2022-08-09T02:59:40.034Z,102136.78
2022-08-09T03:01:07.786Z,102127.13
2022-08-09T03:02:16.833Z,102135.19
2022-08-09T03:03:37.323Z,102132.63
2022-08-09T03:04:45.354Z,102137.16
2022-08-09T03:05:49.381Z,102130.06
2022-08-09T03:07:12.373Z,102140.81
2022-08-09T03:08:18.128Z,102133.75
2022-08-09T03:09:22.236Z,102125.81
2022-08-09T03:10:26.813Z,102129.38
2022-08-09T03:12:06.183Z,102130.34
2022-08-09T03:12:57.407Z,102124.13
2022-08-09T03:14:02.042Z,102133.19
2022-08-09T03:15:05.877Z,102126.97
2022-08-09T03:16:09.636Z,102121.72
2022-08-09T03:17:16.348Z,102126.25
2022-08-09T03:18:31.251Z,102127.09
2022-08-09T03:19:59.653Z,102126.25
2022-08-09T03:20:58.425Z,102131.63
2022-08-09T03:22:03.263Z,102133.59
2022-08-09T03:23:14.969Z,102128.38
2022-08-09T03:24:31.725Z,102129.22
2022-08-09T03:25:59.144Z,102126.69
2022-08-09T03:27:09.164Z,102131.22
2022-08-09T03:28:14.382Z,102136.59
2022-08-09T03:29:22.674Z,102125.13
2022-08-09T03:30:33.378Z,102133.91
2022-08-09T03:31:42.768Z,102127.81
2022-08-09T03:33:05.761Z,102133.19
2022-08-09T03:34:19.955Z,102133.47
2022-08-09T03:36:11.277Z,102126.41
2022-08-09T03:36:58.188Z,102124.69
2022-08-09T03:38:02.064Z,102136.41
2022-08-09T03:39:05.490Z,102126.69
2022-08-09T03:40:09.189Z,102136.56
2022-08-09T03:41:18.221Z,102130.34
2022-08-09T03:42:20.360Z,102134.00
2022-08-09T03:43:33.119Z,102128.63
2022-08-09T03:44:34.801Z,102130.50
2022-08-09T03:46:05.126Z,102132.34
2022-08-09T03:47:03.043Z,102132.34
2022-08-09T03:48:06.781Z,102131.63
2022-08-09T03:49:10.561Z,102134.31
2022-08-09T03:50:14.154Z,102136.13
2022-08-09T03:51:56.961Z,102130.91
2022-08-09T03:52:46.466Z,102128.22
2022-08-09T03:53:49.739Z,102133.72
2022-08-09T03:54:53.887Z,102139.97
2022-08-09T03:55:58.392Z,102135.59
2022-08-09T03:57:18.507Z,102140.97
2022-08-09T03:58:22.148Z,102135.59
2022-08-09T03:59:42.598Z,102137.56
2022-08-09T04:00:48.305Z,102140.25
2022-08-09T04:01:50.717Z,102134.88
2022-08-09T04:02:57.362Z,102137.72
2022-08-09T04:04:04.746Z,102128.78
2022-08-09T04:05:26.599Z,102133.31
2022-08-09T04:06:29.568Z,102135.16
2022-08-09T04:07:47.084Z,102136.97
2022-08-09T04:08:54.897Z,102140.69
2022-08-09T04:09:56.567Z,102139.09
2022-08-09T04:11:01.491Z,102144.47
2022-08-09T04:12:30.430Z,102146.47
2022-08-09T04:13:45.123Z,102141.09
2022-08-09T04:15:00.636Z,102139.38
2022-08-09T04:16:19.509Z,102144.75
2022-08-09T04:17:22.666Z,102142.06
2022-08-09T04:18:26.613Z,102141.38
2022-08-09T04:19:42.717Z,102145.88
2022-08-09T04:20:53.483Z,102143.34
2022-08-09T04:21:55.129Z,102152.38
2022-08-09T04:23:00.327Z,102153.38
2022-08-09T04:24:04.421Z,102147.28
2022-08-09T04:25:09.260Z,102153.53
2022-08-09T04:26:11.290Z,102163.41
2022-08-09T04:27:13.918Z,102150.97
2022-08-09T04:28:16.348Z,102156.34
2022-08-09T04:29:36.113Z,102157.03
2022-08-09T04:30:44.757Z,102158.03
2022-08-09T04:31:47.814Z,102153.66
2022-08-09T04:32:51.380Z,102162.56
2022-08-09T04:33:57.131Z,102150.97
2022-08-09T04:35:01.535Z,102166.09
2022-08-09T04:36:04.787Z,102158.03
2022-08-09T04:37:09.011Z,102161.72
2022-08-09T04:38:11.645Z,102157.19
2022-08-09T04:39:13.375Z,102162.56
2022-08-09T04:40:19.174Z,102158.03
2022-08-09T04:41:23.629Z,102162.41
2022-08-09T04:42:29.748Z,102159.72
2022-08-09T04:43:33.643Z,102161.59
2022-08-09T04:44:38.453Z,102162.41
2022-08-09T04:45:53.053Z,102161.59
2022-08-09T04:47:04.380Z,102162.41
2022-08-09T04:48:10.524Z,102166.81
2022-08-09T04:49:14.900Z,102165.94
2022-08-09T04:50:16.812Z,102166.81
2022-08-09T04:51:22.366Z,102166.81
2022-08-09T04:52:26.425Z,102173.03
2022-08-09T04:53:31.524Z,102173.88
2022-08-09T04:54:33.452Z,102173.88
2022-08-09T04:55:43.601Z,102166.81
2022-08-09T04:56:59.084Z,102173.88
2022-08-09T04:58:09.570Z,102177.56
2022-08-09T04:59:15.322Z,102180.25
2022-08-09T05:00:18.508Z,102179.25
2022-08-09T05:01:21.108Z,102180.97
2022-08-09T05:02:27.442Z,102180.97
2022-08-09T05:03:43.071Z,102179.97
2022-08-09T05:04:47.388Z,102174.59
2022-08-09T05:05:51.928Z,102183.38
2022-08-09T05:06:54.414Z,102182.38
2022-08-09T05:07:59.102Z,102181.50
2022-08-09T05:09:01.264Z,102182.38
2022-08-09T05:10:04.442Z,102185.91
2022-08-09T05:11:07.715Z,102179.69
2022-08-09T05:12:11.111Z,102181.38
2022-08-09T05:13:14.688Z,102192.25
2022-08-09T05:14:17.211Z,102187.75
2022-08-09T05:15:24.612Z,102191.28
2022-08-09T05:16:43.802Z,102188.59
2022-08-09T05:18:55.057Z,102197.34
2022-08-09T05:19:25.800Z,102194.66
2022-08-09T05:20:29.958Z,102192.84
2022-08-09T05:21:36.384Z,102196.38
2022-08-09T05:23:57.134Z,102199.91
2022-08-09T05:24:02.672Z,102194.53
2022-08-09T05:25:06.666Z,102196.25
2022-08-09T05:26:11.693Z,102201.47
2022-08-09T05:27:28.297Z,102197.66
2022-08-09T05:28:33.277Z,102195.97
2022-08-09T05:29:36.234Z,102204.75
2022-08-09T05:30:39.021Z,102199.38
2022-08-09T05:31:57.065Z,102197.41
2022-08-09T05:33:01.972Z,102198.22
2022-08-09T05:34:03.725Z,102198.09
2022-08-09T05:35:08.034Z,102198.81
2022-08-09T05:36:13.292Z,102209.28
2022-08-09T05:37:18.152Z,102198.41
2022-08-09T05:38:21.621Z,102199.25
2022-08-09T05:39:29.640Z,102205.34
2022-08-09T05:40:38.453Z,102203.38
2022-08-09T05:41:40.327Z,102202.81
2022-08-09T05:42:43.112Z,102200.81
2022-08-09T05:43:48.939Z,102202.25
2022-08-09T05:44:53.898Z,102190.50
2022-08-09T05:45:57.781Z,102201.00
2022-08-09T05:47:00.623Z,102200.69
2022-08-09T05:48:02.248Z,102203.16
2022-08-09T05:49:07.466Z,102205.25
2022-08-09T05:50:44.057Z,102200.75
2022-08-09T05:51:51.426Z,102205.94
2022-08-09T05:52:55.033Z,102200.72
2022-08-09T05:53:57.967Z,102206.22
2022-08-09T05:55:03.258Z,102207.06
2022-08-09T05:56:09.209Z,102203.66
2022-08-09T05:57:19.217Z,102211.03
2022-08-09T05:58:24.606Z,102215.53
2022-08-09T05:59:26.227Z,102209.47
2022-08-09T06:00:30.496Z,102210.56
2022-08-09T06:01:42.727Z,102216.91
2022-08-09T06:02:46.866Z,102215.47
2022-08-09T06:03:54.551Z,102211.34
2022-08-09T06:05:01.292Z,102218.97
2022-08-09T06:06:05.814Z,102214.81
2022-08-09T06:07:10.467Z,102210.84
2022-08-09T06:08:24.997Z,102210.53
2022-08-09T06:09:54.468Z,102206.25
2022-08-09T06:10:49.849Z,102208.53
2022-08-09T06:11:57.626Z,102209.06
2022-08-09T06:13:12.377Z,102210.13
2022-08-09T06:14:21.777Z,102209.56
2022-08-09T06:15:23.719Z,102211.66
2022-08-09T06:16:29.544Z,102213.59
2022-08-09T06:17:39.106Z,102218.25
2022-08-09T06:18:42.798Z,102215.97
2022-08-09T06:19:45.436Z,102209.22
2022-08-09T06:20:49.881Z,102215.03
2022-08-09T06:21:58.361Z,102217.25
2022-08-09T06:23:04.159Z,102208.72
2022-08-09T06:24:06.782Z,102207.25
2022-08-09T06:25:12.339Z,102205.78
2022-08-09T06:26:21.044Z,102217.13
2022-08-09T06:27:24.647Z,102210.56
2022-08-09T06:28:44.411Z,102215.66
2022-08-09T06:29:58.813Z,102210.78
2022-08-09T06:31:10.710Z,102222.13
2022-08-09T06:32:58.853Z,102217.28
2022-08-09T06:33:41.582Z,102212.69
2022-08-09T06:34:45.563Z,102214.41
2022-08-09T06:35:57.701Z,102216.09
2022-08-09T06:37:00.860Z,102212.09
2022-08-09T06:38:06.238Z,102220.56
2022-08-09T06:39:11.543Z,102219.13
2022-08-09T06:40:21.886Z,102214.41
2022-08-09T06:42:07.538Z,102212.56
2022-08-09T06:42:48.622Z,102217.66
2022-08-09T06:43:50.631Z,102207.38
2022-08-09T06:44:57.273Z,102208.91
2022-08-09T06:46:08.100Z,102211.31
2022-08-09T06:47:13.594Z,102214.69
2022-08-09T06:48:16.828Z,102213.38
2022-08-09T06:50:11.935Z,102213.03
2022-08-09T06:50:55.924Z,102219.84
2022-08-09T06:51:57.488Z,102211.28
2022-08-09T06:53:01.377Z,102214.47
2022-08-09T06:54:04.451Z,102219.88
2022-08-09T06:55:12.949Z,102215.31
2022-08-09T06:56:15.651Z,102215.31
2022-08-09T06:57:17.262Z,102222.56
2022-08-09T07:00:46.882Z,102215.31
2022-08-09T07:00:51.082Z,102220.72
2022-08-09T07:01:13.110Z,102217.03
2022-08-09T07:02:16.685Z,102214.19
2022-08-09T07:03:19.499Z,102216.72
2022-08-09T07:04:30.834Z,102213.84
2022-08-09T07:05:58.213Z,102220.94
2022-08-09T07:07:00.443Z,102215.72
2022-08-09T07:08:02.553Z,102213.84
2022-08-09T07:09:07.669Z,102222.09
2022-08-09T07:10:32.155Z,102217.34
2022-08-09T07:11:51.987Z,102219.38
2022-08-09T07:12:57.614Z,102224.56
2022-08-09T07:14:05.277Z,102227.72
2022-08-09T07:16:38.932Z,102229.88
2022-08-09T07:16:42.476Z,102218.72
2022-08-09T07:17:52.810Z,102224.41
2022-08-09T07:18:59.171Z,102215.31
2022-08-09T07:20:05.555Z,102232.22
2022-08-09T07:21:10.801Z,102222.44
2022-08-09T07:22:13.968Z,102224.41
2022-08-09T07:23:18.736Z,102219.88
2022-08-09T07:24:31.544Z,102225.28
2022-08-09T07:25:38.860Z,102222.44
2022-08-09T07:26:45.360Z,102219.72
2022-08-09T07:27:53.483Z,102215.84
2022-08-09T07:29:08.526Z,102218.41
2022-08-09T07:30:14.653Z,102217.56
2022-08-09T07:31:17.724Z,102218.41
2022-08-09T07:32:32.474Z,102215.72
2022-08-09T07:33:53.248Z,102214.84
2022-08-09T07:34:57.857Z,102215.00
2022-08-09T07:36:00.560Z,102212.16
2022-08-09T07:37:03.633Z,102215.53
2022-08-09T07:38:06.393Z,102211.97
2022-08-09T07:39:11.921Z,102222.66
2022-08-09T07:40:26.800Z,102218.25
2022-08-09T07:41:32.994Z,102216.53
2022-08-09T07:42:54.363Z,102216.38
2022-08-09T07:43:57.299Z,102219.09
2022-08-09T07:45:02.521Z,102219.75
2022-08-09T07:46:11.579Z,102215.75
2022-08-09T07:47:19.608Z,102219.66
2022-08-09T07:48:30.422Z,102216.50
2022-08-09T07:49:32.527Z,102221.44
2022-08-09T07:50:40.455Z,102219.25
2022-08-09T07:52:04.589Z,102218.94
2022-08-09T07:53:05.864Z,102221.66
2022-08-09T07:54:08.935Z,102216.91
2022-08-09T07:55:11.837Z,102216.59
2022-08-09T07:56:26.548Z,102221.69
2022-08-09T07:57:35.666Z,102215.94
2022-08-09T07:58:37.792Z,102219.34
2022-08-09T07:59:46.144Z,102219.03
2022-08-09T08:00:58.897Z,102218.72
2022-08-09T08:02:09.548Z,102215.81
2022-08-09T08:03:12.466Z,102215.50
2022-08-09T08:04:14.108Z,102218.91
2022-08-09T08:05:19.529Z,102218.63
2022-08-09T08:06:21.490Z,102224.56
2022-08-09T08:08:43.723Z,102218.13
2022-08-09T08:09:03.682Z,102225.22
2022-08-09T08:10:11.001Z,102217.81
2022-08-09T08:12:09.403Z,102230.16
2022-08-09T08:12:42.470Z,102225.59
2022-08-09T08:13:57.355Z,102227.28
2022-08-09T08:15:00.725Z,102226.28
2022-08-09T08:16:03.847Z,102222.56
2022-08-09T08:17:08.654Z,102224.09
2022-08-09T08:18:11.799Z,102233.06
2022-08-09T08:19:17.378Z,102234.59
2022-08-09T08:20:29.382Z,102232.72
2022-08-09T08:21:33.293Z,102235.44
2022-08-09T08:22:34.965Z,102235.09
2022-08-09T08:23:40.890Z,102229.38
2022-08-09T08:24:48.646Z,102232.75
2022-08-09T08:25:54.315Z,102238.00
2022-08-09T08:27:16.923Z,102226.19
2022-08-09T08:28:25.539Z,102233.28
2022-08-09T08:29:39.664Z,102234.97
2022-08-09T08:30:51.595Z,102233.78
2022-08-09T08:32:03.497Z,102238.88
2022-08-09T08:33:11.972Z,102232.47
2022-08-09T08:34:25.339Z,102230.75
2022-08-09T08:35:37.120Z,102230.59
2022-08-09T08:36:50.854Z,102227.06
2022-08-09T08:37:59.425Z,102231.47
2022-08-09T08:39:02.694Z,102227.91
2022-08-09T08:40:06.905Z,102231.47
2022-08-09T08:41:10.882Z,102225.72
2022-08-09T08:42:16.710Z,102227.41
2022-08-09T08:43:21.043Z,102234.16
2022-08-09T08:44:29.396Z,102236.72
2022-08-09T08:45:37.801Z,102235.53
2022-08-09T08:46:41.476Z,102232.69
2022-08-09T08:48:03.794Z,102237.91
2022-08-09T08:49:07.725Z,102231.31
2022-08-09T08:50:18.278Z,102237.44
2022-08-09T08:51:20.609Z,102238.09
2022-08-09T08:54:02.999Z,102232.53
2022-08-09T08:55:06.553Z,102232.53
2022-08-09T08:56:16.843Z,102234.22
2022-08-09T08:57:30.554Z,102232.53
2022-08-09T08:58:38.799Z,102230.50
2022-08-09T08:59:49.254Z,102222.38
2022-08-09T09:00:57.414Z,102229.31
2022-08-09T09:02:03.063Z,102227.47
2022-08-09T09:03:16.306Z,102235.59
2022-08-09T09:04:31.982Z,102245.22
2022-08-09T09:05:58.289Z,102241.50
2022-08-09T09:07:09.819Z,102235.81
2022-08-09T09:08:30.848Z,102244.59
2022-08-09T09:09:58.692Z,102240.72
2022-08-09T09:11:02.623Z,102235.13
2022-08-09T09:12:16.512Z,102245.63
2022-08-09T09:13:20.531Z,102238.03
2022-08-09T09:14:27.971Z,102237.53
2022-08-09T09:15:34.801Z,102241.75
2022-08-09T09:16:36.525Z,102244.78
2022-08-09T09:17:48.707Z,102237.38
2022-08-09T09:19:10.764Z,102240.75
2022-08-09T09:20:18.182Z,102240.59
2022-08-09T09:21:26.174Z,102235.00
2022-08-09T09:22:29.419Z,102241.25
2022-08-09T09:23:42.242Z,102237.34
2022-08-09T09:24:57.836Z,102241.63
2022-08-09T09:26:11.853Z,102243.13
2022-08-09T09:27:22.109Z,102239.22
2022-08-09T09:29:04.052Z,102244.50
2022-08-09T09:32:05.954Z,102249.56
2022-08-09T09:33:15.472Z,102244.66
2022-08-09T09:34:19.302Z,102250.59
2022-08-09T09:35:24.173Z,102242.78
2022-08-09T09:36:39.378Z,102248.72
2022-08-09T09:37:54.844Z,102240.41
2022-08-09T09:39:02.296Z,102239.38
2022-08-09T09:40:11.528Z,102235.84
2022-08-09T09:41:49.901Z,102232.28
2022-08-09T09:42:56.883Z,102240.41
2022-08-09T09:44:12.513Z,102233.81
2022-08-09T09:45:26.540Z,102240.09
2022-08-09T09:46:41.948Z,102232.63
2022-08-09T09:47:56.597Z,102238.59
2022-08-09T09:49:04.739Z,102241.09
2022-08-09T09:50:15.778Z,102236.19
2022-08-09T09:51:26.026Z,102235.00
2022-08-09T09:52:52.235Z,102232.97
2022-08-09T09:54:14.243Z,102248.03
2022-08-09T09:55:31.205Z,102235.00
2022-08-09T09:56:36.575Z,102239.91
2022-08-09T09:58:02.377Z,102238.72
2022-08-09T09:59:09.437Z,102245.84
2022-08-09T10:00:26.419Z,102239.22
2022-08-09T10:01:37.527Z,102240.56
2022-08-09T10:02:46.664Z,102244.78
2022-08-09T10:03:57.488Z,102244.44
2022-08-09T10:05:07.333Z,102242.41
2022-08-09T10:06:12.475Z,102244.09
2022-08-09T10:07:24.084Z,102241.19
2022-08-09T10:08:28.289Z,102242.03
2022-08-09T10:09:48.743Z,102240.19
2022-08-09T10:10:50.748Z,102241.69
2022-08-09T10:12:11.593Z,102243.03
2022-08-09T10:13:24.786Z,102248.47
2022-08-09T10:14:37.457Z,102241.19
2022-08-09T10:16:09.009Z,102237.63
2022-08-09T10:17:39.110Z,102240.34
2022-08-09T10:18:34.841Z,102233.06
2022-08-09T10:19:37.741Z,102233.53
2022-08-09T10:20:44.696Z,102238.63
2022-08-09T10:21:52.313Z,102234.53
2022-08-09T10:23:00.470Z,102237.91
2022-08-09T10:24:04.943Z,102231.47
2022-08-09T10:25:11.680Z,102232.13
2022-08-09T10:26:16.823Z,102236.56
2022-08-09T10:27:22.202Z,102230.94
2022-08-09T10:28:28.683Z,102235.22
2022-08-09T10:30:49.261Z,102224.88
2022-08-09T10:32:40.242Z,102223.81
2022-08-09T10:34:07.820Z,102224.50
2022-08-09T10:35:10.180Z,102220.75
2022-08-09T10:36:13.280Z,102225.00
2022-08-09T10:37:16.388Z,102231.25
2022-08-09T10:38:54.601Z,102230.06
2022-08-09T10:39:49.419Z,102219.22
2022-08-09T10:40:52.082Z,102228.03
2022-08-09T10:41:54.723Z,102240.22
2022-08-09T10:42:57.055Z,102227.31
2022-08-09T10:44:01.999Z,102232.38
2022-08-09T10:45:10.583Z,102226.59
2022-08-09T10:46:55.608Z,102228.28
2022-08-09T10:48:19.483Z,102227.44
2022-08-09T10:49:42.754Z,102227.28
2022-08-09T10:51:11.887Z,102222.50
2022-08-09T10:52:44.940Z,102223.34
2022-08-09T10:53:58.171Z,102214.19
2022-08-09T10:55:20.296Z,102225.88
2022-08-09T10:56:24.522Z,102227.22
2022-08-09T10:57:36.317Z,102215.16
2022-08-09T10:58:42.858Z,102219.41
2022-08-09T10:59:57.444Z,102221.91
2022-08-09T11:03:02.734Z,102219.03
2022-08-09T11:03:16.506Z,102218.69
2022-08-09T11:04:28.052Z,102217.66
2022-08-09T11:05:34.555Z,102225.81
2022-08-09T11:06:39.518Z,102216.44
2022-08-09T11:07:55.778Z,102217.31
2022-08-09T11:09:16.137Z,102221.69
2022-08-09T11:10:56.452Z,102214.59
2022-08-09T11:12:12.723Z,102218.97
2022-08-09T11:13:51.063Z,102211.69
2022-08-09T11:14:41.693Z,102213.38
2022-08-09T11:15:51.241Z,102217.59
2022-08-09T11:17:53.474Z,102209.44
2022-08-09T11:18:59.963Z,102209.28
2022-08-09T11:20:19.697Z,102207.88
2022-08-09T11:22:10.262Z,102212.47
2022-08-09T11:23:24.300Z,102208.91
2022-08-09T11:25:04.603Z,102210.78
2022-08-09T11:26:07.232Z,102199.56
2022-08-09T11:28:03.891Z,102207.38
2022-08-09T11:28:55.840Z,102200.25
2022-08-09T11:30:05.179Z,102201.56
2022-08-09T11:31:49.091Z,102206.84
2022-08-09T11:32:59.739Z,102202.06
2022-08-09T11:34:06.602Z,102194.41
2022-08-09T11:37:31.226Z,102184.19
2022-08-09T11:38:42.779Z,102197.41
2022-08-09T11:40:01.633Z,102193.28
2022-08-09T11:41:37.576Z,102181.41
2022-08-09T11:42:43.431Z,102190.91
2022-08-09T11:43:48.669Z,102187.13
2022-08-09T11:44:55.120Z,102189.47
2022-08-09T11:46:01.239Z,102185.75
2022-08-09T11:47:04.009Z,102179.47
2022-08-09T11:48:26.188Z,102180.31
2022-08-09T11:50:53.641Z,102177.97
2022-08-09T11:52:53.916Z,102182.38
2022-08-09T11:53:58.029Z,102184.88
2022-08-09T11:54:43.412Z,102179.47
2022-08-09T11:55:53.471Z,102192.50
2022-08-09T11:57:56.449Z,102182.66
2022-08-09T11:59:01.420Z,102182.66
2022-08-09T12:00:12.874Z,102181.44
2022-08-09T12:02:00.922Z,102180.41
2022-08-09T12:02:51.185Z,102182.28
2022-08-09T12:04:00.709Z,102191.13
2022-08-09T12:05:04.316Z,102185.47
2022-08-09T12:06:15.778Z,102175.09
2022-08-09T12:07:18.410Z,102171.16
2022-08-09T12:08:22.103Z,102171.63
2022-08-09T12:09:26.988Z,102173.97
2022-08-09T12:10:39.833Z,102168.16
2022-08-09T12:12:02.059Z,102169.69
2022-08-09T12:14:08.352Z,102178.66
2022-08-09T12:14:40.996Z,102171.56
2022-08-09T12:16:01.197Z,102169.88
2022-08-09T12:17:33.984Z,102169.50
2022-08-09T12:18:33.681Z,102165.91
2022-08-09T12:19:35.531Z,102172.69
2022-08-09T12:20:44.885Z,102163.31
2022-08-09T12:21:51.518Z,102162.97
2022-08-09T12:22:56.806Z,102166.16
2022-08-09T12:24:09.054Z,102160.53
2022-08-09T12:25:14.999Z,102162.22
2022-08-09T12:26:19.727Z,102164.59
2022-08-09T12:29:12.312Z,102164.84
2022-08-09T12:29:12.576Z,102162.50
2022-08-09T12:30:35.676Z,102158.56
2022-08-09T12:31:59.050Z,102164.22
2022-08-09T12:33:05.217Z,102155.00
2022-08-09T12:34:09.286Z,102157.34
2022-08-09T12:35:21.765Z,102156.97
2022-08-09T12:36:32.279Z,102153.88
2022-08-09T12:37:50.336Z,102151.44
2022-08-09T12:38:55.579Z,102153.78
2022-08-09T12:40:08.207Z,102153.41
2022-08-09T12:41:10.195Z,102150.88
2022-08-09T12:42:16.182Z,102150.69
2022-08-09T12:43:21.609Z,102153.41
2022-08-09T12:44:51.954Z,102151.53
2022-08-09T12:46:00.113Z,102155.09
2022-08-09T12:47:03.532Z,102146.94
2022-08-09T12:48:20.044Z,102153.00
2022-08-09T12:49:32.957Z,102151.34
2022-08-09T12:50:35.708Z,102146.72
2022-08-09T12:52:00.557Z,102145.53
2022-08-09T12:53:17.402Z,102146.56
2022-08-09T12:54:21.822Z,102142.81
2022-08-09T12:56:14.330Z,102138.66
2022-08-09T12:56:54.073Z,102140.72
2022-08-09T12:57:56.501Z,102140.56
2022-08-09T12:59:10.354Z,102130.50
2022-08-09T13:00:17.690Z,102136.59
2022-08-09T13:01:28.191Z,102138.94
2022-08-09T13:02:46.334Z,102133.50
2022-08-09T13:04:01.775Z,102139.78
2022-08-09T13:05:04.855Z,102142.13
2022-08-09T13:06:16.005Z,102129.16
2022-08-09T13:07:28.614Z,102129.16
2022-08-09T13:08:58.516Z,102130.41
2022-08-09T13:10:05.170Z,102133.75
2022-08-09T13:11:23.144Z,102126.66
2022-08-09T13:12:29.176Z,102123.47
2022-08-09T13:13:37.962Z,102129.75
2022-08-09T13:15:05.034Z,102133.50
2022-08-09T13:16:15.603Z,102122.41
2022-08-09T13:17:43.956Z,102123.94
2022-08-09T13:18:47.004Z,102121.22
2022-08-09T13:20:07.411Z,102119.78
2022-08-09T13:22:37.765Z,102120.63
2022-08-09T13:23:05.385Z,102111.22
2022-08-09T13:24:42.534Z,102119.00
2022-08-09T13:25:42.846Z,102114.25
2022-08-09T13:26:49.935Z,102114.91
2022-08-09T13:27:55.896Z,102105.72
2022-08-09T13:29:18.490Z,102118.28
2022-08-09T13:30:50.253Z,102110.75
2022-08-09T13:32:17.382Z,102102.78
2022-08-09T13:33:24.709Z,102103.44
2022-08-09T13:34:47.915Z,102100.50
2022-08-09T13:36:38.130Z,102099.09
2022-08-09T13:37:12.256Z,102099.94